Terminal Aerodrome Forecast
Issued by NWS

Home | Current Version | Previous Version | Text Only | Print | Product List | Glossary On
Versions: 1 2 3 4 5 6 7 8 9 10 11 12 13 14 15 16
000
FTUS43 KBIS 211100
TAFMOT
TAF
KMOT 211130Z 2112/2212 32011KT P6SM BKN015 OVC020
      TEMPO 2115/2118 SCT025
     FM211800 30010KT P6SM SKC
     FM220000 VRB03KT P6SM FEW300
     FM220300 10004KT P6SM FEW300
     FM220600 17005KT P6SM SCT250=

USA.gov is the U.S. government's official web portal to all federal, state and local government web resources and services.